Time;durP1;ratioP1;P1;durP2;ratioP2;P2;SDS_P1;SDS_P2;PMS_P1;PMS_P2;Temp;Humidity;BMP_temperature;BMP_pressure;BME280_temperature;BME280_humidity;BME280_pressure;Samples;Min_cycle;Max_cycle;Signal;HPM_P1;HPM_P2
2022/06/18 00:00:24;;;;;;;8.35;5.55;;;19.00;99.90;;;;;;5248972;28;20024;-75
2022/06/18 00:02:55;;;;;;;8.00;5.95;;;19.20;99.90;;;;;;5248948;28;20068;-75
2022/06/18 00:05:34;;;;;;;8.45;5.50;;;19.10;99.90;;;;;;5248809;28;20547;-75
2022/06/18 00:08:11;;;;;;;10.43;6.00;;;19.00;99.90;;;;;;5247671;28;20033;-75
2022/06/18 00:10:43;;;;;;;8.95;5.45;;;18.90;99.90;;;;;;5248799;28;20028;-75
2022/06/18 00:16:03;;;;;;;8.63;5.30;;;19.00;99.90;;;;;;5249125;28;20047;-75
2022/06/18 00:18:33;;;;;;;7.30;5.28;;;18.70;99.90;;;;;;5247393;28;20358;-75
2022/06/18 00:21:06;;;;;;;6.90;5.30;;;18.90;99.90;;;;;;5248338;28;20099;-76
2022/06/18 00:23:39;;;;;;;5.70;5.10;;;18.80;99.90;;;;;;5248231;28;20480;-75
2022/06/18 00:26:10;;;;;;;9.80;5.63;;;18.80;99.90;;;;;;5247206;28;20529;-75
2022/06/18 00:28:41;;;;;;;8.57;4.80;;;18.70;99.90;;;;;;5247213;28;20471;-75
2022/06/18 00:31:12;;;;;;;10.45;5.50;;;18.90;99.90;;;;;;5247128;28;20047;-75
2022/06/18 00:33:43;;;;;;;9.25;5.38;;;18.80;99.90;;;;;;5248065;28;20024;-75
2022/06/18 00:36:17;;;;;;;8.13;5.22;;;18.70;99.90;;;;;;5248370;28;20444;-75
2022/06/18 00:38:49;;;;;;;6.38;5.50;;;18.80;99.90;;;;;;5248481;28;20009;-75
2022/06/18 00:41:24;;;;;;;9.20;5.32;;;18.90;99.90;;;;;;5247115;28;20067;-76
2022/06/18 00:44:05;;;;;;;9.05;4.82;;;18.80;99.90;;;;;;5246484;28;20056;-75
2022/06/18 00:46:43;;;;;;;8.20;4.95;;;18.90;99.90;;;;;;5247032;28;20056;-75
2022/06/18 00:49:25;;;;;;;7.15;5.63;;;18.70;99.90;;;;;;5248351;28;20036;-75
2022/06/18 00:52:22;;;;;;;12.15;6.78;;;18.70;99.90;;;;;;5247123;28;20035;-75
2022/06/18 00:55:13;;;;;;;8.23;5.90;;;18.60;99.90;;;;;;5248198;28;20406;-75
2022/06/18 00:57:49;;;;;;;9.15;5.65;;;18.60;99.90;;;;;;5248389;28;20399;-75
2022/06/18 01:00:33;;;;;;;11.20;5.70;;;18.50;99.90;;;;;;5246701;28;20154;-76
2022/06/18 01:03:05;;;;;;;7.72;5.93;;;18.80;99.90;;;;;;5248169;28;20032;-75
2022/06/18 01:05:39;;;;;;;11.30;5.68;;;18.70;99.90;;;;;;5248078;28;20357;-75
2022/06/18 01:08:19;;;;;;;7.78;5.13;;;18.60;99.90;;;;;;5247897;28;20515;-76
2022/06/18 01:10:58;;;;;;;7.30;5.07;;;18.60;99.90;;;;;;5248254;28;20025;-75
2022/06/18 01:13:36;;;;;;;10.07;6.13;;;18.70;99.90;;;;;;5248091;28;20044;-76
2022/06/18 01:16:08;;;;;;;7.20;5.80;;;18.50;99.90;;;;;;5248102;28;20146;-74
2022/06/18 01:18:40;;;;;;;10.60;6.10;;;18.50;99.90;;;;;;5248180;28;20045;-76
2022/06/18 01:21:22;;;;;;;10.05;6.03;;;18.50;99.90;;;;;;5248117;28;20049;-76
2022/06/18 01:24:15;;;;;;;7.15;5.80;;;18.50;99.90;;;;;;5246420;28;20036;-75
2022/06/18 01:26:48;;;;;;;7.03;5.88;;;18.40;99.90;;;;;;5246803;28;20111;-76
2022/06/18 01:29:20;;;;;;;9.90;5.57;;;18.50;99.90;;;;;;5247680;28;20422;-75
2022/06/18 01:31:51;;;;;;;7.80;5.78;;;18.60;99.90;;;;;;5247863;28;20075;-75
2022/06/18 01:34:22;;;;;;;11.35;6.45;;;18.60;99.90;;;;;;5248040;28;20028;-75
2022/06/18 01:36:54;;;;;;;9.63;6.18;;;18.60;99.90;;;;;;5247791;28;20021;-75
2022/06/18 01:39:31;;;;;;;9.15;5.97;;;18.60;99.90;;;;;;5246521;28;20082;-75
2022/06/18 01:42:19;;;;;;;9.90;6.35;;;18.50;99.90;;;;;;5247949;28;20364;-75
2022/06/18 01:44:52;;;;;;;7.95;5.70;;;18.50;99.90;;;;;;5247462;28;20063;-75
2022/06/18 01:47:29;;;;;;;8.50;5.80;;;18.50;99.90;;;;;;5250610;28;20031;-75
2022/06/18 01:50:13;;;;;;;8.73;5.38;;;18.30;99.90;;;;;;5250274;28;20017;-75
2022/06/18 01:52:50;;;;;;;6.53;5.05;;;18.30;99.90;;;;;;5250342;28;20056;-75
2022/06/18 01:55:30;;;;;;;6.18;4.85;;;18.10;99.90;;;;;;5251452;28;20415;-75
2022/06/18 01:58:08;;;;;;;6.32;4.82;;;18.10;99.90;;;;;;5251566;28;20025;-75
2022/06/18 02:00:41;;;;;;;11.00;5.15;;;18.20;99.90;;;;;;5251241;28;20028;-75
2022/06/18 02:03:12;;;;;;;5.28;4.45;;;18.10;99.90;;;;;;5249939;28;20032;-75
2022/06/18 02:05:43;;;;;;;9.80;5.00;;;18.10;99.90;;;;;;5251259;28;20042;-75
2022/06/18 02:08:17;;;;;;;7.22;5.18;;;18.10;99.90;;;;;;5251163;28;20104;-75
2022/06/18 02:11:03;;;;;;;6.47;4.65;;;18.20;99.90;;;;;;5249945;28;20021;-75
2022/06/18 02:13:38;;;;;;;11.27;4.97;;;18.10;99.90;;;;;;5251208;28;20111;-75
2022/06/18 02:16:15;;;;;;;10.13;4.93;;;18.00;99.90;;;;;;5249955;28;20058;-75
2022/06/18 02:18:48;;;;;;;7.78;4.65;;;17.90;99.90;;;;;;5251163;28;20039;-75
2022/06/18 02:21:24;;;;;;;7.45;5.05;;;17.90;99.90;;;;;;5251093;28;20029;-75
2022/06/18 02:23:55;;;;;;;9.55;5.70;;;17.90;99.90;;;;;;5250714;28;20041;-75
2022/06/18 02:26:28;;;;;;;8.30;4.78;;;17.80;99.90;;;;;;5250556;28;20032;-76
2022/06/18 02:28:59;;;;;;;6.25;4.85;;;17.80;99.90;;;;;;5250778;28;20020;-75
2022/06/18 02:31:35;;;;;;;5.35;4.85;;;17.80;99.90;;;;;;5250758;28;20025;-75
2022/06/18 02:34:10;;;;;;;5.50;4.40;;;17.90;99.90;;;;;;5250854;28;20032;-75
2022/06/18 02:36:42;;;;;;;6.25;4.38;;;17.90;99.90;;;;;;5250712;28;20087;-75
2022/06/18 02:39:25;;;;;;;7.50;4.75;;;17.80;99.90;;;;;;5249320;28;20025;-75
2022/06/18 02:42:06;;;;;;;7.43;5.13;;;17.70;99.90;;;;;;5250462;28;20488;-75
2022/06/18 02:44:44;;;;;;;6.90;4.63;;;17.60;99.90;;;;;;5250366;28;20131;-75
2022/06/18 02:47:21;;;;;;;7.60;4.60;;;17.70;99.90;;;;;;5249999;28;20043;-76
2022/06/18 02:50:24;;;;;;;11.80;5.03;;;17.60;99.90;;;;;;5251306;28;20082;-76
2022/06/18 02:53:05;;;;;;;7.43;4.68;;;17.50;99.90;;;;;;5250285;28;20043;-76
2022/06/18 02:55:53;;;;;;;8.02;5.47;;;17.50;99.90;;;;;;5249725;28;20036;-75
2022/06/18 02:58:32;;;;;;;7.50;5.07;;;17.60;99.90;;;;;;5250723;28;20472;-76
2022/06/18 03:01:07;;;;;;;6.47;4.72;;;17.50;99.90;;;;;;5249447;28;20035;-75
2022/06/18 03:03:42;;;;;;;7.05;4.68;;;17.60;99.90;;;;;;5248920;28;20036;-75
2022/06/18 03:06:13;;;;;;;9.57;5.50;;;17.60;99.90;;;;;;5248542;28;20028;-75
2022/06/18 03:08:46;;;;;;;8.35;5.00;;;17.60;99.90;;;;;;5249924;28;20088;-75
2022/06/18 03:14:10;;;;;;;11.68;4.75;;;17.50;99.90;;;;;;5249917;28;20051;-75
2022/06/18 03:16:41;;;;;;;7.38;5.10;;;17.60;99.90;;;;;;5249819;28;20550;-75
2022/06/18 03:19:42;;;;;;;9.00;4.78;;;17.60;99.90;;;;;;5249677;28;20369;-75
2022/06/18 03:22:17;;;;;;;7.60;5.03;;;17.80;99.90;;;;;;5249577;28;20031;-75
2022/06/18 03:24:48;;;;;;;5.80;4.82;;;17.80;99.90;;;;;;5249712;28;20539;-75
2022/06/18 03:27:18;;;;;;;15.52;4.60;;;17.90;99.90;;;;;;5249467;28;20028;-75
2022/06/18 03:29:52;;;;;;;8.98;4.75;;;17.80;99.90;;;;;;5248247;28;20020;-75
2022/06/18 03:32:23;;;;;;;9.52;4.80;;;18.00;99.90;;;;;;5249430;28;20107;-75
2022/06/18 03:34:53;;;;;;;10.45;5.00;;;18.00;99.90;;;;;;5248441;28;20119;-74
2022/06/18 03:37:24;;;;;;;13.38;5.40;;;18.00;99.90;;;;;;5248106;28;20465;-75
2022/06/18 03:39:55;;;;;;;9.57;5.45;;;18.30;99.90;;;;;;5249348;28;20021;-75
2022/06/18 03:42:25;;;;;;;8.63;4.88;;;18.30;99.90;;;;;;5249101;28;20035;-75
2022/06/18 03:44:56;;;;;;;7.90;4.63;;;18.30;99.90;;;;;;5248920;28;20121;-75
2022/06/18 03:47:27;;;;;;;10.23;5.30;;;18.40;99.90;;;;;;5247743;28;20036;-75
2022/06/18 03:49:58;;;;;;;11.70;5.70;;;18.30;99.90;;;;;;5249558;28;20025;-75
2022/06/18 03:52:29;;;;;;;10.25;5.15;;;18.30;99.90;;;;;;5249077;28;20029;-76
2022/06/18 03:55:00;;;;;;;9.10;5.63;;;18.60;99.90;;;;;;5247721;28;20021;-75
2022/06/18 03:57:30;;;;;;;11.25;5.53;;;18.60;99.90;;;;;;5249056;28;20016;-75
2022/06/18 04:00:01;;;;;;;9.52;4.88;;;18.60;99.90;;;;;;5247647;28;20388;-75
2022/06/18 04:02:32;;;;;;;11.48;6.00;;;18.80;99.90;;;;;;5248814;28;20028;-75
2022/06/18 04:05:03;;;;;;;7.40;5.22;;;19.00;99.90;;;;;;5247233;28;20034;-75
2022/06/18 04:07:37;;;;;;;7.72;5.20;;;19.20;99.90;;;;;;5247588;28;20431;-75
2022/06/18 04:10:15;;;;;;;13.57;6.38;;;19.10;99.90;;;;;;5248332;28;20024;-74
2022/06/18 04:12:46;;;;;;;9.57;6.07;;;19.10;99.90;;;;;;5246890;28;20552;-75
2022/06/18 04:15:19;;;;;;;10.07;7.15;;;19.30;99.90;;;;;;5248706;28;20067;-74
2022/06/18 04:17:50;;;;;;;13.55;6.80;;;19.40;99.90;;;;;;5248728;28;20016;-75
2022/06/18 04:20:25;;;;;;;14.07;6.78;;;19.60;99.90;;;;;;5247340;28;20464;-75
2022/06/18 04:22:56;;;;;;;14.85;7.43;;;19.80;99.90;;;;;;5247376;28;20035;-75
2022/06/18 04:25:27;;;;;;;12.45;6.18;;;19.90;99.90;;;;;;5247378;28;20031;-75
2022/06/18 04:27:58;;;;;;;8.00;6.50;;;20.10;99.90;;;;;;5248426;28;20388;-75
2022/06/18 04:30:31;;;;;;;12.00;6.10;;;20.10;99.90;;;;;;5248293;28;20020;-75
2022/06/18 04:33:02;;;;;;;14.57;6.30;;;20.40;99.90;;;;;;5248484;28;20524;-75
2022/06/18 04:35:34;;;;;;;16.42;7.40;;;20.50;99.90;;;;;;5248240;28;20092;-75
2022/06/18 04:38:05;;;;;;;11.93;6.78;;;20.70;99.90;;;;;;5248474;28;20028;-75
2022/06/18 04:40:36;;;;;;;12.23;6.50;;;20.70;99.90;;;;;;5248417;28;20424;-75
2022/06/18 04:43:08;;;;;;;7.55;4.88;;;20.90;99.90;;;;;;5247968;28;20040;-75
2022/06/18 04:45:39;;;;;;;8.73;4.32;;;21.10;99.90;;;;;;5248307;28;20516;-75
2022/06/18 04:48:12;;;;;;;8.68;5.40;;;20.90;99.90;;;;;;5248301;28;20086;-74
2022/06/18 04:50:43;;;;;;;20.60;4.75;;;21.00;99.90;;;;;;5248355;28;20027;-75
2022/06/18 04:53:14;;;;;;;8.18;3.92;;;21.20;99.90;;;;;;5248131;28;20025;-75
2022/06/18 04:55:44;;;;;;;4.82;3.03;;;21.10;99.90;;;;;;5248162;28;20031;-75
2022/06/18 04:58:15;;;;;;;7.03;3.15;;;21.40;99.90;;;;;;5247872;28;20464;-75
2022/06/18 05:00:46;;;;;;;7.60;2.20;;;21.50;99.90;;;;;;5248115;28;20031;-76
2022/06/18 05:03:20;;;;;;;5.90;2.60;;;21.50;99.90;;;;;;5248071;28;20028;-75
2022/06/18 05:05:52;;;;;;;5.10;2.25;;;21.40;99.90;;;;;;5248213;28;20029;-74
2022/06/18 05:08:23;;;;;;;7.30;2.10;;;21.20;99.90;;;;;;5248171;28;20013;-75
2022/06/18 05:10:54;;;;;;;4.90;2.33;;;21.40;99.90;;;;;;5248380;28;20503;-75
2022/06/18 05:13:24;;;;;;;5.13;2.10;;;21.20;99.90;;;;;;5247916;28;20032;-75
2022/06/18 05:15:57;;;;;;;4.70;2.03;;;21.20;99.90;;;;;;5247977;28;20491;-75
2022/06/18 05:18:31;;;;;;;7.80;2.80;;;21.20;99.90;;;;;;5246578;28;20514;-75
2022/06/18 05:21:02;;;;;;;8.23;2.03;;;21.00;99.90;;;;;;5247459;28;20021;-75
2022/06/18 05:23:33;;;;;;;5.20;1.92;;;20.90;99.90;;;;;;5251915;28;20097;-74
2022/06/18 05:26:08;;;;;;;5.65;2.20;;;20.90;99.90;;;;;;5251970;28;20024;-75
2022/06/18 05:28:39;;;;;;;5.80;2.28;;;21.20;99.90;;;;;;5250506;28;20024;-75
2022/06/18 05:31:10;;;;;;;8.50;2.45;;;21.40;99.90;;;;;;5250452;28;20425;-75
2022/06/18 05:33:40;;;;;;;5.07;2.45;;;21.30;99.90;;;;;;5251711;28;20029;-75
2022/06/18 05:36:19;;;;;;;4.95;2.22;;;21.10;99.90;;;;;;5251513;28;20033;-75
2022/06/18 05:38:53;;;;;;;6.90;2.28;;;21.00;99.90;;;;;;5251745;28;20379;-75
2022/06/18 05:41:24;;;;;;;6.25;2.00;;;21.00;99.90;;;;;;5251676;28;20049;-74
2022/06/18 05:43:54;;;;;;;5.05;1.77;;;21.60;99.90;;;;;;5249900;28;20049;-75
2022/06/18 05:46:26;;;;;;;2.67;1.55;;;22.00;99.90;;;;;;5251503;28;20066;-75
2022/06/18 05:48:56;;;;;;;4.47;1.67;;;21.70;99.90;;;;;;5251400;28;20024;-75
2022/06/18 05:51:27;;;;;;;6.18;1.77;;;21.70;99.90;;;;;;5251142;28;20039;-75
2022/06/18 05:53:58;;;;;;;6.60;1.98;;;21.70;99.90;;;;;;5251452;28;20028;-76
2022/06/18 05:56:29;;;;;;;4.13;1.60;;;21.60;99.90;;;;;;5251239;28;20082;-75
2022/06/18 05:58:59;;;;;;;5.03;1.77;;;21.50;99.90;;;;;;5251321;28;20024;-75
2022/06/18 06:01:30;;;;;;;4.10;1.92;;;21.40;99.90;;;;;;5251311;28;20025;-74
2022/06/18 06:04:01;;;;;;;5.97;1.70;;;21.50;99.90;;;;;;5249979;28;20571;-75
2022/06/18 06:06:32;;;;;;;3.60;1.77;;;22.00;99.90;;;;;;5249879;28;20024;-74
2022/06/18 06:09:03;;;;;;;4.95;1.85;;;22.70;99.90;;;;;;5249639;28;20082;-74
2022/06/18 06:11:34;;;;;;;3.53;1.30;;;22.70;99.90;;;;;;5251098;28;20025;-75
2022/06/18 06:14:05;;;;;;;2.80;1.52;;;22.40;99.90;;;;;;5249660;28;20023;-75
2022/06/18 06:16:36;;;;;;;3.97;1.40;;;22.30;99.90;;;;;;5251026;28;20595;-75
2022/06/18 06:19:08;;;;;;;3.60;1.88;;;22.10;99.90;;;;;;5250607;28;20101;-75
2022/06/18 06:21:39;;;;;;;4.85;1.63;;;22.00;99.90;;;;;;5249401;28;20075;-75
2022/06/18 06:24:10;;;;;;;4.85;1.70;;;22.10;99.90;;;;;;5250736;28;20392;-75
2022/06/18 06:26:40;;;;;;;3.42;1.55;;;21.80;99.90;;;;;;5250596;28;20400;-75
2022/06/18 06:29:12;;;;;;;7.32;1.55;;;22.00;99.90;;;;;;5250591;28;20036;-75
2022/06/18 06:31:42;;;;;;;5.10;1.60;;;21.90;99.90;;;;;;5250255;28;20024;-74
2022/06/18 06:34:13;;;;;;;2.65;1.40;;;22.30;99.90;;;;;;5250873;28;20023;-75
2022/06/18 06:36:44;;;;;;;3.83;1.70;;;22.00;99.90;;;;;;5249038;28;20032;-75
2022/06/18 06:39:16;;;;;;;5.50;1.77;;;21.90;99.90;;;;;;5249329;28;20107;-75
2022/06/18 06:41:47;;;;;;;5.63;1.60;;;22.20;99.90;;;;;;5250834;28;20028;-76
2022/06/18 06:44:18;;;;;;;5.65;1.70;;;22.40;99.90;;;;;;5250034;28;20105;-75
2022/06/18 06:46:48;;;;;;;6.90;1.77;;;22.80;99.90;;;;;;5250348;28;20025;-76
2022/06/18 06:49:19;;;;;;;3.33;1.65;;;22.80;99.90;;;;;;5249041;28;20025;-75
2022/06/18 06:51:50;;;;;;;3.90;1.70;;;23.20;99.90;;;;;;5250261;28;20029;-75
2022/06/18 06:54:21;;;;;;;7.43;1.70;;;23.20;99.90;;;;;;5250213;28;20089;-75
2022/06/18 06:59:41;;;;;;;5.38;1.92;;;23.20;99.90;;;;;;5250577;28;20075;-75
2022/06/18 07:02:16;;;;;;;6.00;1.90;;;22.70;99.90;;;;;;5249940;28;20036;-75
2022/06/18 07:04:47;;;;;;;7.65;1.42;;;22.80;99.90;;;;;;5250249;28;20078;-76
2022/06/18 07:07:18;;;;;;;3.65;1.40;;;22.90;99.90;;;;;;5249798;28;20475;-75
2022/06/18 07:09:48;;;;;;;2.55;1.42;;;22.90;99.90;;;;;;5249949;28;20060;-75
2022/06/18 07:12:19;;;;;;;6.00;1.48;;;23.20;99.90;;;;;;5249718;28;20099;-75
2022/06/18 07:14:50;;;;;;;6.43;1.80;;;23.60;99.90;;;;;;5249773;28;20036;-75
2022/06/18 07:17:22;;;;;;;6.88;1.50;;;23.00;99.90;;;;;;5249688;28;20025;-75
2022/06/18 07:19:52;;;;;;;2.30;1.42;;;23.40;99.90;;;;;;5248611;28;20514;-75
2022/06/18 07:22:24;;;;;;;2.72;1.30;;;23.00;99.90;;;;;;5249612;28;20025;-75
2022/06/18 07:24:55;;;;;;;6.40;1.52;;;23.40;99.90;;;;;;5249684;28;20357;-75
2022/06/18 07:27:26;;;;;;;4.38;1.60;;;23.20;99.90;;;;;;5249462;28;20050;-75
2022/06/18 07:29:57;;;;;;;4.00;1.60;;;23.40;99.90;;;;;;5249677;28;20043;-74
2022/06/18 07:32:28;;;;;;;4.95;1.50;;;23.60;99.90;;;;;;5248185;28;20016;-75
2022/06/18 07:34:59;;;;;;;3.13;1.50;;;23.90;99.90;;;;;;5249341;28;20032;-75
2022/06/18 07:37:30;;;;;;;5.43;1.80;;;23.80;99.90;;;;;;5249378;28;20027;-75
2022/06/18 07:40:00;;;;;;;2.67;1.17;;;23.60;99.90;;;;;;5247975;28;20024;-75
2022/06/18 07:42:31;;;;;;;3.63;1.30;;;23.10;99.90;;;;;;5248122;28;20051;-75
2022/06/18 07:45:04;;;;;;;6.75;1.58;;;22.80;99.90;;;;;;5248136;28;20175;-77
2022/06/18 07:47:35;;;;;;;4.72;1.55;;;22.90;99.90;;;;;;5249095;28;20058;-76
2022/06/18 07:50:07;;;;;;;8.10;1.60;;;23.50;99.90;;;;;;5248761;28;20037;-75
2022/06/18 07:52:38;;;;;;;5.93;1.50;;;23.70;99.90;;;;;;5249116;28;20005;-76
2022/06/18 07:55:15;;;;;;;28.15;7.03;;;24.00;99.90;;;;;;5247852;28;20072;-76
2022/06/18 07:57:46;;;;;;;33.40;7.30;;;23.60;99.90;;;;;;5248952;28;20017;-76
2022/06/18 08:00:21;;;;;;;7.07;2.45;;;23.50;99.90;;;;;;5249026;28;20029;-76
2022/06/18 08:02:52;;;;;;;7.80;2.53;;;23.80;99.90;;;;;;5247607;28;20039;-76
2022/06/18 08:05:27;;;;;;;6.20;1.50;;;24.00;99.90;;;;;;5247728;28;20028;-77
2022/06/18 08:07:58;;;;;;;3.08;1.13;;;23.90;99.90;;;;;;5248832;28;20009;-75
2022/06/18 08:10:30;;;;;;;4.85;1.85;;;23.40;99.90;;;;;;5248396;28;20078;-75
2022/06/18 08:13:01;;;;;;;5.00;1.27;;;23.30;99.90;;;;;;5247575;28;20029;-77
2022/06/18 08:15:32;;;;;;;6.22;1.88;;;23.00;99.90;;;;;;5248233;28;20086;-77
2022/06/18 08:18:03;;;;;;;3.47;1.50;;;23.20;99.90;;;;;;5247420;28;20476;-75
2022/06/18 08:20:35;;;;;;;4.55;1.90;;;23.00;99.90;;;;;;5248435;28;20028;-76
2022/06/18 08:23:06;;;;;;;3.85;1.60;;;23.00;99.90;;;;;;5248517;28;20082;-75
2022/06/18 08:25:40;;;;;;;2.35;1.42;;;23.00;99.90;;;;;;5247329;28;20024;-74
2022/06/18 08:28:11;;;;;;;5.85;1.40;;;22.80;99.90;;;;;;5248386;28;20099;-75
2022/06/18 08:30:42;;;;;;;4.85;1.30;;;23.50;99.90;;;;;;5248475;28;20436;-76
2022/06/18 08:33:13;;;;;;;5.65;1.35;;;23.80;99.90;;;;;;5248487;28;20107;-76
2022/06/18 08:35:44;;;;;;;9.48;2.60;;;24.20;99.90;;;;;;5248270;28;20021;-76
2022/06/18 08:38:15;;;;;;;4.90;1.05;;;24.60;99.90;;;;;;5248334;28;20032;-75
2022/06/18 08:41:09;;;;;;;4.82;1.02;;;24.00;99.90;;;;;;5248352;28;20096;-76
2022/06/18 08:44:00;;;;;;;3.03;1.40;;;23.80;99.90;;;;;;5248062;28;20055;-75
2022/06/18 08:47:13;;;;;;;6.25;1.17;;;23.90;99.90;;;;;;5248266;28;20498;-76
2022/06/18 08:50:02;;;;;;;52.20;5.05;;;24.30;99.90;;;;;;5248174;28;20100;-75
2022/06/18 08:52:39;;;;;;;12.07;3.63;;;23.90;99.90;;;;;;5248224;28;20373;-76
2022/06/18 08:55:22;;;;;;;4.00;1.20;;;24.10;99.90;;;;;;5250283;28;20570;-76
2022/06/18 08:58:16;;;;;;;4.13;1.23;;;24.70;99.90;;;;;;5254965;28;20067;-75
2022/06/18 09:00:57;;;;;;;5.25;1.00;;;24.60;99.90;;;;;;5253679;28;20490;-75
2022/06/18 09:04:13;;;;;;;3.42;1.00;;;24.80;99.90;;;;;;5255078;28;20063;-74
2022/06/18 09:06:49;;;;;;;7.97;1.50;;;25.20;99.90;;;;;;5254800;28;20031;-76
2022/06/18 09:09:39;;;;;;;6.65;1.50;;;25.80;99.90;;;;;;5254979;28;20036;-77
2022/06/18 09:12:35;;;;;;;6.95;1.10;;;25.10;99.90;;;;;;5254102;28;20021;-76
2022/06/18 09:15:17;;;;;;;4.18;1.10;;;25.60;99.90;;;;;;5249583;28;20060;-75
2022/06/18 09:17:54;;;;;;;3.78;0.90;;;25.10;99.90;;;;;;5253652;28;20030;-76
2022/06/18 09:20:37;;;;;;;2.45;1.08;;;25.10;99.90;;;;;;5254558;28;20096;-74
2022/06/18 09:23:27;;;;;;;3.22;1.10;;;25.30;99.90;;;;;;5254244;28;20024;-77
2022/06/18 09:26:00;;;;;;;4.15;1.30;;;25.20;99.90;;;;;;5252833;28;20111;-78
2022/06/18 09:28:51;;;;;;;4.72;1.52;;;24.70;99.90;;;;;;5253252;28;20126;-77
2022/06/18 09:31:48;;;;;;;4.57;1.27;;;24.20;99.90;;;;;;5254700;28;20103;-76
2022/06/18 09:34:33;;;;;;;4.55;1.45;;;24.70;99.90;;;;;;5253234;28;20049;-77
2022/06/18 09:37:13;;;;;;;4.55;1.35;;;25.20;99.90;;;;;;5254844;28;20095;-77
2022/06/18 09:39:47;;;;;;;5.07;1.30;;;25.30;99.90;;;;;;5254760;28;20023;-77
2022/06/18 09:42:41;;;;;;;3.40;1.52;;;24.80;99.90;;;;;;5254737;28;20017;-77
2022/06/18 09:45:32;;;;;;;6.30;1.60;;;25.40;99.90;;;;;;5252498;28;20048;-74
2022/06/18 09:48:04;;;;;;;4.43;1.17;;;24.60;99.90;;;;;;5254481;28;20024;-75
2022/06/18 09:50:45;;;;;;;4.80;1.33;;;24.20;99.90;;;;;;5253286;28;20110;-75
2022/06/18 09:53:25;;;;;;;2.35;1.25;;;24.30;99.90;;;;;;5253017;28;20469;-75
2022/06/18 09:56:10;;;;;;;3.13;1.23;;;25.00;99.90;;;;;;5253134;28;20380;-75
2022/06/18 09:58:50;;;;;;;3.33;1.08;;;24.60;99.90;;;;;;5254499;28;20029;-75
2022/06/18 10:01:33;;;;;;;4.90;1.35;;;24.50;99.90;;;;;;5254364;28;20380;-75
2022/06/18 10:06:57;;;;;;;5.18;1.42;;;24.80;99.90;;;;;;5251154;28;20032;-75
2022/06/18 10:09:43;;;;;;;9.32;1.23;;;24.40;99.90;;;;;;5251031;28;20024;-75
2022/06/18 10:12:35;;;;;;;6.03;1.65;;;24.70;99.90;;;;;;5249326;28;20029;-75
2022/06/18 10:15:10;;;;;;;5.85;1.33;;;24.00;99.90;;;;;;5247799;28;20473;-74
2022/06/18 10:17:58;;;;;;;5.45;1.38;;;23.90;99.90;;;;;;5250324;28;20021;-74
2022/06/18 10:20:48;;;;;;;5.53;1.10;;;24.90;99.90;;;;;;5248181;28;20029;-75
2022/06/18 10:23:25;;;;;;;3.42;1.20;;;24.80;99.90;;;;;;5262585;28;20048;-77
2022/06/18 10:26:15;;;;;;;4.82;1.05;;;24.80;99.90;;;;;;5249084;28;20499;-76
2022/06/18 10:29:00;;;;;;;4.32;1.08;;;23.90;99.90;;;;;;5250596;28;20032;-74
2022/06/18 10:31:54;;;;;;;3.25;0.98;;;24.10;99.90;;;;;;5245521;28;20033;-74
2022/06/18 10:34:37;;;;;;;4.20;1.20;;;24.10;99.90;;;;;;5249507;28;20081;-74
2022/06/18 10:37:20;;;;;;;3.25;1.00;;;24.00;99.90;;;;;;5248985;28;20100;-75
2022/06/18 10:40:06;;;;;;;6.18;1.50;;;24.00;99.90;;;;;;5249920;28;20012;-75
2022/06/18 10:42:52;;;;;;;2.45;1.10;;;23.70;99.90;;;;;;5247314;28;20379;-75
2022/06/18 10:45:41;;;;;;;3.78;1.33;;;24.60;99.90;;;;;;5249297;28;20052;-75
2022/06/18 10:48:20;;;;;;;3.67;1.25;;;25.00;99.90;;;;;;5244035;28;20044;-76
2022/06/18 10:50:54;;;;;;;2.67;1.00;;;24.30;99.90;;;;;;5241950;28;20020;-74
2022/06/18 10:53:29;;;;;;;3.42;1.20;;;24.70;99.90;;;;;;5249871;28;20270;-75
2022/06/18 10:56:13;;;;;;;4.43;1.30;;;25.00;99.90;;;;;;5250658;28;20028;-76
2022/06/18 10:58:52;;;;;;;3.45;1.20;;;24.30;99.90;;;;;;5248124;28;20115;-76
2022/06/18 11:01:44;;;;;;;6.72;1.30;;;25.10;99.90;;;;;;5250276;28;20032;-74
2022/06/18 11:04:28;;;;;;;3.30;1.40;;;24.90;99.90;;;;;;5249965;28;20044;-75
2022/06/18 11:07:02;;;;;;;4.93;0.98;;;24.60;99.90;;;;;;5248509;28;20021;-77
2022/06/18 11:10:00;;;;;;;2.53;1.20;;;24.90;99.90;;;;;;5249650;28;20767;-75
2022/06/18 11:12:37;;;;;;;4.78;1.20;;;24.30;99.90;;;;;;5249867;28;20473;-77
2022/06/18 11:15:34;;;;;;;6.60;1.33;;;24.60;99.90;;;;;;5249732;28;20024;-75
2022/06/18 11:18:14;;;;;;;4.25;1.38;;;24.60;99.90;;;;;;5247346;28;20399;-75
2022/06/18 11:21:05;;;;;;;3.42;0.95;;;24.30;99.90;;;;;;5241756;28;20027;-75
2022/06/18 11:23:37;;;;;;;2.47;1.27;;;24.50;99.90;;;;;;5249580;28;20033;-77
2022/06/18 11:26:17;;;;;;;5.28;1.40;;;24.70;99.90;;;;;;5249585;28;20032;-77
2022/06/18 11:28:50;;;;;;;5.20;1.05;;;25.00;99.90;;;;;;5249579;28;20104;-76
2022/06/18 11:31:49;;;;;;;2.42;1.00;;;24.00;99.90;;;;;;5248583;28;20032;-76
2022/06/18 11:34:29;;;;;;;5.00;0.90;;;24.30;99.90;;;;;;5246868;28;20035;-76
2022/06/18 11:37:00;;;;;;;2.63;1.13;;;24.20;99.90;;;;;;5247082;28;20459;-75
2022/06/18 11:39:33;;;;;;;13.13;1.58;;;24.10;99.90;;;;;;5248627;28;20025;-76
2022/06/18 11:42:26;;;;;;;5.40;1.50;;;25.10;99.90;;;;;;5249308;28;20029;-76
2022/06/18 11:45:06;;;;;;;3.83;1.60;;;24.60;99.90;;;;;;5248797;28;20131;-75
2022/06/18 11:47:49;;;;;;;5.63;1.60;;;23.90;99.90;;;;;;5249142;28;20146;-75
2022/06/18 11:50:28;;;;;;;2.50;1.17;;;25.00;99.90;;;;;;5249177;28;20025;-75
2022/06/18 11:53:17;;;;;;;5.72;1.45;;;24.70;99.90;;;;;;5248979;28;20024;-77
2022/06/18 11:55:53;;;;;;;4.25;1.30;;;24.80;99.90;;;;;;5248894;28;20036;-75
2022/06/18 11:58:40;;;;;;;6.35;1.77;;;24.50;99.90;;;;;;5246154;28;20021;-75
2022/06/18 12:01:29;;;;;;;4.78;2.00;;;24.20;99.90;;;;;;5227905;28;20032;-75
2022/06/18 12:04:21;;;;;;;5.70;1.90;;;24.00;99.90;;;;;;5227984;28;20384;-75
2022/06/18 12:07:11;;;;;;;5.68;2.03;;;23.90;99.90;;;;;;5228059;28;20024;-75
2022/06/18 12:09:42;;;;;;;5.75;1.80;;;24.20;99.90;;;;;;5226919;28;20461;-75
2022/06/18 12:12:43;;;;;;;6.45;1.88;;;24.00;99.90;;;;;;5227812;28;20347;-75
2022/06/18 12:15:26;;;;;;;3.75;1.50;;;24.80;99.90;;;;;;5227972;28;20037;-74
2022/06/18 12:18:00;;;;;;;4.10;1.52;;;23.70;99.90;;;;;;5227762;28;20096;-74
2022/06/18 12:21:02;;;;;;;5.43;2.20;;;23.90;99.90;;;;;;5227855;28;20047;-75
2022/06/18 12:24:05;;;;;;;7.53;2.50;;;24.20;99.90;;;;;;5228116;28;20029;-75
2022/06/18 12:26:45;;;;;;;5.75;2.20;;;23.80;99.90;;;;;;5224451;28;20041;-75
2022/06/18 12:29:41;;;;;;;7.05;1.95;;;23.60;99.90;;;;;;5243928;28;20376;-75
2022/06/18 12:32:47;;;;;;;5.93;1.98;;;23.40;99.90;;;;;;5238391;28;20020;-75
2022/06/18 12:35:30;;;;;;;4.97;1.73;;;23.60;99.90;;;;;;5247078;28;20021;-75
2022/06/18 12:38:02;;;;;;;5.60;2.05;;;23.60;99.90;;;;;;5249180;28;20016;-76
2022/06/18 12:40:55;;;;;;;6.95;2.08;;;23.30;99.90;;;;;;5249224;28;20134;-75
2022/06/18 12:43:39;;;;;;;5.53;1.92;;;23.50;99.90;;;;;;5248855;28;20047;-75
2022/06/18 12:46:25;;;;;;;3.80;1.63;;;23.70;99.90;;;;;;5246674;28;20060;-74
2022/06/18 12:49:27;;;;;;;5.03;2.33;;;23.40;99.90;;;;;;5246986;28;20085;-75
2022/06/18 12:52:13;;;;;;;10.90;2.30;;;23.20;99.90;;;;;;5248224;28;20021;-75
2022/06/18 12:55:04;;;;;;;4.50;1.55;;;23.20;99.90;;;;;;5248125;28;20028;-75
2022/06/18 12:57:53;;;;;;;5.18;1.65;;;23.80;99.90;;;;;;5246811;28;20020;-75
2022/06/18 13:00:46;;;;;;;5.57;2.15;;;23.90;99.90;;;;;;5246630;28;20457;-75
2022/06/18 13:03:17;;;;;;;4.07;1.90;;;23.60;99.90;;;;;;5248153;28;20063;-75
2022/06/18 13:05:51;;;;;;;4.15;1.92;;;23.80;99.90;;;;;;5247979;28;20074;-75
2022/06/18 13:08:22;;;;;;;5.75;2.30;;;23.90;99.90;;;;;;5246713;28;20025;-75
2022/06/18 13:11:25;;;;;;;7.53;1.65;;;24.00;99.90;;;;;;5247615;28;20033;-75
2022/06/18 13:14:26;;;;;;;4.30;1.80;;;23.70;99.90;;;;;;5235674;28;20124;-74
2022/06/18 13:17:01;;;;;;;8.85;2.17;;;23.60;99.90;;;;;;5246366;28;20067;-75
2022/06/18 13:19:45;;;;;;;6.28;2.33;;;23.60;99.90;;;;;;5247694;28;20460;-74
2022/06/18 13:22:16;;;;;;;4.38;2.00;;;23.60;99.90;;;;;;5245873;28;20021;-75
2022/06/18 13:31:21;;;;;;;3.38;1.90;;;23.70;99.90;;;;;;5247752;28;20111;-74
2022/06/18 13:34:03;;;;;;;3.70;1.40;;;23.30;99.90;;;;;;5247431;28;20391;-75
2022/06/18 13:36:52;;;;;;;7.43;1.67;;;23.40;99.90;;;;;;5247503;28;20020;-75
2022/06/18 13:39:45;;;;;;;4.77;2.00;;;23.60;99.90;;;;;;5247754;28;20484;-75
2022/06/18 13:42:25;;;;;;;6.00;1.50;;;23.60;99.90;;;;;;5248560;28;20104;-74
2022/06/18 13:45:25;;;;;;;5.40;1.90;;;23.10;99.90;;;;;;5250951;28;20446;-75
2022/06/18 13:48:08;;;;;;;5.65;2.08;;;23.70;99.90;;;;;;5249917;28;20460;-76
2022/06/18 13:50:48;;;;;;;2.35;1.27;;;23.20;99.90;;;;;;5251193;28;20032;-75
2022/06/18 13:53:31;;;;;;;4.88;1.83;;;23.20;99.90;;;;;;5250933;28;20040;-75
2022/06/18 13:56:19;;;;;;;3.67;1.75;;;23.40;99.90;;;;;;5250969;28;20024;-75